Terminal Aerodrome Forecast
Issued by NWS Shreveport, LA

Home | Current Version | Previous Version | Text Only | Print | Product List | Glossary On
Versions: 1 2 3 4 5 6 7 8 9 10 11 12 13 14 15 16 17 18 19 20 21 22
000
FTUS44 KSHV 052320
TAFTXK
TAF
KTXK 052320Z 0600/0624 15008KT P6SM VCTS FEW040CB
      TEMPO 0600/0602 VRB15G25KT 4SM TSRA OVC040CB
     FM060200 17005KT P6SM FEW050 SCT250
      TEMPO 0610/0614 5SM BR BKN008
     FM061400 19008KT P6SM BKN025
     FM061600 20012G18KT P6SM SCT040=

USA.gov is the U.S. government's official web portal to all federal, state and local government web resources and services.